createdAt,value
2017-03-20T00:00:40.109Z,950.42
2017-03-20T00:01:43.153Z,950.44
2017-03-20T00:02:38.331Z,950.38
2017-03-20T00:03:38.094Z,950.42
2017-03-20T00:04:47.234Z,950.36
2017-03-20T00:05:46.325Z,950.39
2017-03-20T00:06:39.867Z,950.43
2017-03-20T00:07:44.328Z,950.40
2017-03-20T00:08:32.331Z,950.43
2017-03-20T00:09:39.882Z,950.36
2017-03-20T00:10:58.819Z,950.47
2017-03-20T00:11:53.477Z,950.45
2017-03-20T00:12:46.988Z,950.46
2017-03-20T00:13:34.915Z,950.51
2017-03-20T00:14:53.818Z,950.47
2017-03-20T00:15:41.827Z,950.47
2017-03-20T00:16:49.073Z,950.53
2017-03-20T00:17:34.901Z,950.53
2017-03-20T00:18:50.107Z,950.57
2017-03-20T00:19:43.366Z,950.58
2017-03-20T00:20:38.542Z,950.57
2017-03-20T00:21:31.924Z,950.62
2017-03-20T00:22:38.811Z,950.59
2017-03-20T00:23:38.235Z,950.61
2017-03-20T00:25:01.054Z,950.60
2017-03-20T00:25:39.173Z,950.65
2017-03-20T00:26:38.861Z,950.62
2017-03-20T00:27:44.234Z,950.66
2017-03-20T00:28:42.753Z,950.69
2017-03-20T00:29:44.954Z,950.66
2017-03-20T00:30:51.677Z,950.67
2017-03-20T00:31:38.932Z,950.66
2017-03-20T00:32:38.538Z,950.69
2017-03-20T00:33:42.820Z,950.63
2017-03-20T00:34:43.793Z,950.65
2017-03-20T00:35:38.061Z,950.63
2017-03-20T00:36:53.627Z,950.58
2017-03-20T00:37:40.219Z,950.58
2017-03-20T00:38:48.818Z,950.64
2017-03-20T00:39:40.012Z,950.58
2017-03-20T00:40:34.190Z,950.57
2017-03-20T00:41:43.106Z,950.58
2017-03-20T00:42:37.992Z,950.56
2017-03-20T00:43:53.676Z,950.58
2017-03-20T00:44:53.316Z,950.52
2017-03-20T00:45:52.746Z,950.54
2017-03-20T00:46:53.794Z,950.50
2017-03-20T00:47:40.159Z,950.57
2017-03-20T00:48:45.240Z,950.57
2017-03-20T00:49:44.578Z,950.57
2017-03-20T00:50:34.327Z,950.59
2017-03-20T00:51:49.937Z,950.59
2017-03-20T00:52:38.561Z,950.56
2017-03-20T00:53:51.753Z,950.58
2017-03-20T00:54:38.527Z,950.61
2017-03-20T00:55:32.988Z,950.58
2017-03-20T00:56:35.058Z,950.59
2017-03-20T00:57:41.208Z,950.62
2017-03-20T00:58:50.804Z,950.57
2017-03-20T00:59:40.930Z,950.53
2017-03-20T01:00:40.441Z,950.57
2017-03-20T01:01:29.831Z,950.54
2017-03-20T01:02:38.662Z,950.57
2017-03-20T01:03:44.153Z,950.55
2017-03-20T01:04:43.397Z,950.58
2017-03-20T01:05:42.819Z,950.57
2017-03-20T01:06:58.665Z,950.63
2017-03-20T01:07:45.976Z,950.64
2017-03-20T01:09:04.369Z,950.68
2017-03-20T01:09:58.587Z,950.68
2017-03-20T01:10:51.846Z,950.64
2017-03-20T01:11:40.756Z,950.68
2017-03-20T01:12:43.993Z,950.67
2017-03-20T01:13:39.045Z,950.66
2017-03-20T01:14:52.509Z,950.64
2017-03-20T01:15:56.006Z,950.70
2017-03-20T01:16:48.960Z,950.68
2017-03-20T01:17:43.127Z,950.79
2017-03-20T01:18:40.061Z,950.73
2017-03-20T01:19:50.082Z,950.77
2017-03-20T01:20:44.225Z,950.67
2017-03-20T01:21:40.561Z,950.69
2017-03-20T01:22:34.061Z,950.72
2017-03-20T01:23:34.301Z,950.70
2017-03-20T01:24:38.517Z,950.69
2017-03-20T01:25:40.183Z,950.69
2017-03-20T01:26:37.002Z,950.71
2017-03-20T01:27:53.595Z,950.71
2017-03-20T01:28:57.669Z,950.72
2017-03-20T01:29:41.011Z,950.70
2017-03-20T01:30:43.637Z,950.76
2017-03-20T01:31:39.372Z,950.75
2017-03-20T01:32:59.637Z,950.79
2017-03-20T01:33:54.709Z,950.76
2017-03-20T01:34:33.008Z,950.72
2017-03-20T01:35:40.041Z,950.73
2017-03-20T01:36:38.690Z,950.71
2017-03-20T01:37:42.791Z,950.72
2017-03-20T01:38:33.053Z,950.76
2017-03-20T01:39:42.890Z,950.75
2017-03-20T01:40:38.428Z,950.72
2017-03-20T01:41:43.221Z,950.74
2017-03-20T01:42:43.876Z,950.72
2017-03-20T01:43:34.512Z,950.71
2017-03-20T01:44:38.719Z,950.73
2017-03-20T01:45:43.595Z,950.74
2017-03-20T01:46:44.680Z,950.75
2017-03-20T01:47:39.397Z,950.73
2017-03-20T01:48:37.377Z,950.72
2017-03-20T01:49:43.678Z,950.72
2017-03-20T01:50:36.811Z,950.76
2017-03-20T01:51:37.937Z,950.73
2017-03-20T01:52:45.339Z,950.75
2017-03-20T01:53:59.049Z,950.75
2017-03-20T01:54:43.066Z,950.76
2017-03-20T01:55:53.725Z,950.74
2017-03-20T01:56:43.968Z,950.70
2017-03-20T01:57:43.653Z,950.71
2017-03-20T01:58:44.669Z,950.71
2017-03-20T01:59:32.089Z,950.74
2017-03-20T02:00:43.814Z,950.74
2017-03-20T02:01:43.249Z,950.71
2017-03-20T02:02:37.685Z,950.74
2017-03-20T02:03:44.418Z,950.73
2017-03-20T02:04:39.819Z,950.71
2017-03-20T02:05:43.666Z,950.72
2017-03-20T02:06:43.667Z,950.71
2017-03-20T02:07:44.918Z,950.72
2017-03-20T02:08:39.286Z,950.68
2017-03-20T02:09:34.209Z,950.70
2017-03-20T02:10:37.186Z,950.72
2017-03-20T02:11:38.084Z,950.73
2017-03-20T02:12:43.066Z,950.69
2017-03-20T02:13:40.086Z,950.66
2017-03-20T02:14:34.205Z,950.64
2017-03-20T02:15:42.755Z,950.70
2017-03-20T02:16:51.748Z,950.66
2017-03-20T02:17:53.914Z,950.66
2017-03-20T02:18:52.196Z,950.69
2017-03-20T02:19:41.752Z,950.66
2017-03-20T02:20:51.405Z,950.66
2017-03-20T02:21:42.532Z,950.65
2017-03-20T02:22:36.586Z,950.65
2017-03-20T02:23:42.598Z,950.66
2017-03-20T02:24:40.395Z,950.66
2017-03-20T02:25:44.996Z,950.65
2017-03-20T02:26:41.742Z,950.64
2017-03-20T02:27:44.466Z,950.67
2017-03-20T02:28:51.247Z,950.65
2017-03-20T02:29:34.247Z,950.68
2017-03-20T02:30:49.380Z,950.65
2017-03-20T02:31:42.192Z,950.68
2017-03-20T02:32:40.032Z,950.69
2017-03-20T02:33:41.451Z,950.72
2017-03-20T02:34:43.620Z,950.68
2017-03-20T02:35:38.466Z,950.67
2017-03-20T02:36:42.821Z,950.69
2017-03-20T02:37:38.957Z,950.68
2017-03-20T02:38:43.102Z,950.68
2017-03-20T02:39:39.114Z,950.70
2017-03-20T02:40:38.902Z,950.70
2017-03-20T02:41:39.089Z,950.69
2017-03-20T02:42:40.914Z,950.66
2017-03-20T02:43:40.198Z,950.64
2017-03-20T02:44:32.611Z,950.70
2017-03-20T02:45:38.448Z,950.64
2017-03-20T02:46:34.826Z,950.66
2017-03-20T02:47:33.718Z,950.64
2017-03-20T02:48:43.111Z,950.67
2017-03-20T02:49:39.967Z,950.62
2017-03-20T02:50:50.988Z,950.64
2017-03-20T02:51:33.997Z,950.68
2017-03-20T02:52:35.062Z,950.66
2017-03-20T02:53:34.836Z,950.64
2017-03-20T02:54:44.141Z,950.65
2017-03-20T02:55:37.200Z,950.59
2017-03-20T02:56:37.034Z,950.65
2017-03-20T02:57:39.825Z,950.66
2017-03-20T02:58:43.293Z,950.61
2017-03-20T02:59:44.381Z,950.67
2017-03-20T03:00:38.204Z,950.67
2017-03-20T03:01:49.064Z,950.64
2017-03-20T03:02:37.934Z,950.65
2017-03-20T03:03:38.544Z,950.67
2017-03-20T03:04:48.773Z,950.68
2017-03-20T03:05:49.113Z,950.68
2017-03-20T03:06:38.501Z,950.67
2017-03-20T03:07:43.931Z,950.65
2017-03-20T03:08:43.212Z,950.71
2017-03-20T03:09:44.193Z,950.69
2017-03-20T03:10:44.370Z,950.70
2017-03-20T03:11:41.917Z,950.71
2017-03-20T03:12:37.827Z,950.70
2017-03-20T03:13:37.081Z,950.67
2017-03-20T03:14:44.403Z,950.68
2017-03-20T03:15:37.979Z,950.67
2017-03-20T03:16:39.032Z,950.68
2017-03-20T03:17:42.403Z,950.69
2017-03-20T03:18:44.492Z,950.70
2017-03-20T03:19:34.639Z,950.73
2017-03-20T03:20:38.449Z,950.73
2017-03-20T03:21:43.105Z,950.73
2017-03-20T03:22:42.765Z,950.70
2017-03-20T03:23:36.875Z,950.73
2017-03-20T03:24:44.103Z,950.72
2017-03-20T03:25:34.896Z,950.75
2017-03-20T03:26:33.703Z,950.72
2017-03-20T03:27:39.044Z,950.75
2017-03-20T03:28:43.253Z,950.79
2017-03-20T03:29:37.679Z,950.75
2017-03-20T03:30:37.024Z,950.76
2017-03-20T03:31:38.296Z,950.76
2017-03-20T03:32:34.268Z,950.79
2017-03-20T03:33:38.252Z,950.76
2017-03-20T03:34:43.504Z,950.80
2017-03-20T03:35:39.552Z,950.79
2017-03-20T03:36:44.356Z,950.80
2017-03-20T03:37:43.825Z,950.80
2017-03-20T03:38:38.541Z,950.75
2017-03-20T03:39:41.268Z,950.76
2017-03-20T03:40:53.290Z,950.76
2017-03-20T03:41:36.627Z,950.78
2017-03-20T03:42:37.223Z,950.76
2017-03-20T03:43:53.169Z,950.75
2017-03-20T03:44:39.109Z,950.76
2017-03-20T03:45:38.492Z,950.78
2017-03-20T03:46:51.721Z,950.78
2017-03-20T03:47:42.870Z,950.79
2017-03-20T03:48:39.062Z,950.80
2017-03-20T03:49:38.465Z,950.77
2017-03-20T03:50:41.361Z,950.80
2017-03-20T03:51:42.899Z,950.80
2017-03-20T03:52:58.403Z,950.80
2017-03-20T03:53:36.944Z,950.82
2017-03-20T03:54:43.489Z,950.78
2017-03-20T03:55:54.014Z,950.78
2017-03-20T03:56:33.045Z,950.81
2017-03-20T03:57:44.285Z,950.78
2017-03-20T03:58:44.385Z,950.81
2017-03-20T03:59:37.666Z,950.80
2017-03-20T04:00:54.895Z,950.83
2017-03-20T04:01:38.548Z,950.82
2017-03-20T04:02:43.493Z,950.84
2017-03-20T04:03:38.651Z,950.82
2017-03-20T04:04:53.903Z,950.86
2017-03-20T04:05:38.530Z,950.84
2017-03-20T04:06:42.882Z,950.85
2017-03-20T04:07:28.690Z,950.85
2017-03-20T04:08:39.277Z,950.86
2017-03-20T04:09:37.266Z,950.87
2017-03-20T04:10:38.489Z,950.85
2017-03-20T04:11:44.330Z,950.89
2017-03-20T04:12:44.204Z,950.91
2017-03-20T04:13:37.644Z,950.93
2017-03-20T04:14:36.852Z,950.94
2017-03-20T04:15:37.075Z,950.93
2017-03-20T04:16:33.330Z,950.97
2017-03-20T04:17:52.301Z,950.94
2017-03-20T04:18:59.489Z,950.98
2017-03-20T04:19:32.349Z,950.96
2017-03-20T04:20:43.332Z,950.95
2017-03-20T04:21:40.166Z,950.94
2017-03-20T04:22:28.973Z,950.95
2017-03-20T04:23:39.533Z,951.02
2017-03-20T04:24:51.319Z,950.99
2017-03-20T04:25:32.809Z,951.00
2017-03-20T04:26:42.934Z,950.97
2017-03-20T04:27:39.711Z,950.96
2017-03-20T04:28:34.014Z,951.02
2017-03-20T04:29:41.395Z,950.95
2017-03-20T04:30:53.693Z,950.97
2017-03-20T04:31:49.000Z,950.99
2017-03-20T04:32:38.509Z,950.98
2017-03-20T04:33:39.016Z,951.04
2017-03-20T04:34:43.813Z,951.00
2017-03-20T04:35:33.811Z,951.02
2017-03-20T04:36:41.485Z,951.03
2017-03-20T04:37:36.357Z,951.03
2017-03-20T04:38:38.611Z,951.00
2017-03-20T04:39:38.154Z,951.05
2017-03-20T04:40:43.064Z,951.05
2017-03-20T04:41:43.937Z,951.01
2017-03-20T04:42:43.391Z,951.03
2017-03-20T04:43:34.332Z,951.02
2017-03-20T04:44:44.252Z,951.04
2017-03-20T04:45:43.754Z,951.02
2017-03-20T04:46:39.724Z,951.07
2017-03-20T04:47:40.508Z,951.04
2017-03-20T04:48:36.827Z,951.02
2017-03-20T04:49:38.033Z,951.01
2017-03-20T04:50:34.629Z,951.04
2017-03-20T04:51:34.313Z,950.97
2017-03-20T04:52:56.827Z,951.04
2017-03-20T04:53:53.518Z,951.07
2017-03-20T04:54:38.368Z,951.05
2017-03-20T04:55:44.211Z,951.03
2017-03-20T04:56:39.631Z,951.03
2017-03-20T04:57:47.088Z,950.99
2017-03-20T04:58:41.118Z,950.98
2017-03-20T04:59:36.646Z,951.01
2017-03-20T05:00:38.261Z,951.02
2017-03-20T05:01:33.856Z,951.01
2017-03-20T05:02:43.210Z,951.03
2017-03-20T05:03:54.282Z,951.06
2017-03-20T05:04:37.011Z,951.04
2017-03-20T05:05:43.993Z,951.12
2017-03-20T05:06:47.737Z,951.11
2017-03-20T05:07:34.262Z,951.07
2017-03-20T05:08:33.800Z,951.10
2017-03-20T05:09:37.955Z,951.11
2017-03-20T05:10:44.316Z,951.11
2017-03-20T05:11:38.866Z,951.06
2017-03-20T05:12:38.382Z,951.07
2017-03-20T05:13:34.048Z,951.13
2017-03-20T05:14:40.104Z,951.09
2017-03-20T05:15:44.648Z,951.15
2017-03-20T05:16:44.192Z,951.14
2017-03-20T05:17:38.142Z,951.16
2017-03-20T05:18:48.591Z,951.14
2017-03-20T05:19:38.525Z,951.13
2017-03-20T05:20:35.800Z,951.15
2017-03-20T05:21:41.573Z,951.16
2017-03-20T05:22:39.152Z,951.15
2017-03-20T05:23:39.057Z,951.19
2017-03-20T05:24:38.165Z,951.15
2017-03-20T05:26:37.120Z,951.19
2017-03-20T05:27:59.890Z,951.22
2017-03-20T05:28:42.638Z,951.20
2017-03-20T05:29:43.607Z,951.19
2017-03-20T05:30:44.640Z,951.18
2017-03-20T05:31:53.625Z,951.21
2017-03-20T05:32:47.351Z,951.23
2017-03-20T05:33:44.845Z,951.26
2017-03-20T05:34:55.926Z,951.30
2017-03-20T05:35:38.471Z,951.27
2017-03-20T05:36:33.513Z,951.31
2017-03-20T05:37:44.107Z,951.30
2017-03-20T05:38:40.388Z,951.32
2017-03-20T05:39:38.653Z,951.28
2017-03-20T05:40:44.181Z,951.35
2017-03-20T05:41:38.592Z,951.36
2017-03-20T05:42:53.492Z,951.37
2017-03-20T05:43:53.469Z,951.42
2017-03-20T05:44:41.919Z,951.40
2017-03-20T05:45:38.440Z,951.38
2017-03-20T05:46:38.008Z,951.42
2017-03-20T05:47:39.449Z,951.34
2017-03-20T05:48:32.679Z,951.34
2017-03-20T05:49:38.558Z,951.38
2017-03-20T05:50:39.321Z,951.36
2017-03-20T05:51:39.122Z,951.42
2017-03-20T05:52:44.158Z,951.41
2017-03-20T05:53:38.544Z,951.41
2017-03-20T05:54:43.175Z,951.38
2017-03-20T05:55:33.481Z,951.44
2017-03-20T05:56:36.825Z,951.38
2017-03-20T05:57:32.835Z,951.43
2017-03-20T05:58:43.904Z,951.46
2017-03-20T05:59:53.766Z,951.50
2017-03-20T06:00:34.200Z,951.49
2017-03-20T06:01:39.138Z,951.52
2017-03-20T06:02:37.656Z,951.48
2017-03-20T06:03:41.462Z,951.52
2017-03-20T06:04:37.979Z,951.50
2017-03-20T06:05:41.283Z,951.49
2017-03-20T06:06:36.927Z,951.46
2017-03-20T06:07:42.514Z,951.50
2017-03-20T06:08:34.895Z,951.53
2017-03-20T06:09:50.856Z,951.53
2017-03-20T06:10:39.165Z,951.54
2017-03-20T06:11:51.558Z,951.56
2017-03-20T06:12:40.535Z,951.61
2017-03-20T06:13:36.672Z,951.61
2017-03-20T06:14:39.313Z,951.60
2017-03-20T06:15:45.085Z,951.60
2017-03-20T06:16:39.944Z,951.62
2017-03-20T06:17:35.844Z,951.63
2017-03-20T06:18:55.114Z,951.61
2017-03-20T06:19:53.730Z,951.65
2017-03-20T06:20:54.296Z,951.67
2017-03-20T06:21:52.188Z,951.66
2017-03-20T06:22:31.711Z,951.71
2017-03-20T06:23:38.621Z,951.64
2017-03-20T06:24:43.255Z,951.61
2017-03-20T06:25:45.015Z,951.68
2017-03-20T06:26:39.287Z,951.75
2017-03-20T06:27:44.455Z,951.77
2017-03-20T06:28:38.371Z,951.81
2017-03-20T06:29:51.601Z,951.76
2017-03-20T06:30:55.393Z,951.79
2017-03-20T06:31:33.274Z,951.83
2017-03-20T06:32:59.157Z,951.88
2017-03-20T06:33:43.204Z,951.89
2017-03-20T06:34:55.337Z,951.82
2017-03-20T06:35:32.796Z,951.79
2017-03-20T06:36:43.959Z,951.78
2017-03-20T06:37:42.962Z,951.86
2017-03-20T06:38:35.446Z,951.86
2017-03-20T06:39:42.044Z,951.84
2017-03-20T06:40:38.523Z,951.85
2017-03-20T06:41:33.027Z,951.82
2017-03-20T06:42:53.795Z,951.88
2017-03-20T06:43:27.699Z,951.94
2017-03-20T06:44:39.131Z,951.89
2017-03-20T06:45:39.518Z,951.87
2017-03-20T06:46:42.821Z,951.85
2017-03-20T06:47:34.902Z,951.85
2017-03-20T06:48:39.998Z,951.84
2017-03-20T06:49:40.165Z,951.81
2017-03-20T06:50:52.421Z,951.79
2017-03-20T06:51:38.655Z,951.88
2017-03-20T06:52:52.927Z,951.87
2017-03-20T06:53:38.742Z,951.85
2017-03-20T06:54:38.457Z,951.84
2017-03-20T06:55:43.835Z,951.86
2017-03-20T06:56:34.463Z,951.84
2017-03-20T06:57:49.230Z,951.86
2017-03-20T06:58:42.893Z,951.88
2017-03-20T06:59:39.772Z,951.88
2017-03-20T07:00:40.041Z,951.87
2017-03-20T07:01:54.154Z,951.88
2017-03-20T07:02:44.658Z,951.90
2017-03-20T07:03:42.909Z,951.84
2017-03-20T07:04:53.557Z,951.86
2017-03-20T07:05:44.391Z,951.90
2017-03-20T07:06:43.371Z,951.94
2017-03-20T07:07:42.743Z,951.93
2017-03-20T07:08:44.169Z,951.94
2017-03-20T07:09:39.730Z,951.94
2017-03-20T07:10:38.477Z,951.92
2017-03-20T07:11:32.634Z,951.95
2017-03-20T07:12:37.448Z,951.94
2017-03-20T07:13:42.776Z,951.96
2017-03-20T07:14:53.515Z,951.93
2017-03-20T07:15:38.726Z,951.93
2017-03-20T07:16:33.444Z,951.95
2017-03-20T07:17:49.150Z,951.95
2017-03-20T07:18:39.898Z,951.96
2017-03-20T07:19:40.753Z,951.97
2017-03-20T07:20:40.134Z,951.97
2017-03-20T07:21:38.795Z,951.94
2017-03-20T07:22:44.422Z,951.95
2017-03-20T07:23:37.138Z,951.94
2017-03-20T07:24:41.388Z,951.94
2017-03-20T07:25:42.266Z,952.03
2017-03-20T07:26:59.265Z,951.99
2017-03-20T07:28:00.057Z,952.03
2017-03-20T07:28:48.148Z,951.96
2017-03-20T07:29:34.810Z,951.93
2017-03-20T07:30:50.742Z,951.99
2017-03-20T07:31:29.603Z,951.95
2017-03-20T07:32:47.091Z,951.97
2017-03-20T07:33:39.178Z,952.01
2017-03-20T07:34:59.423Z,952.00
2017-03-20T07:35:42.935Z,952.01
2017-03-20T07:36:43.101Z,952.01
2017-03-20T07:37:37.249Z,952.00
2017-03-20T07:38:45.317Z,952.04
2017-03-20T07:39:38.042Z,952.00
2017-03-20T07:40:54.264Z,951.97
2017-03-20T07:41:42.835Z,951.95
2017-03-20T07:42:49.559Z,951.94
2017-03-20T07:43:38.560Z,951.95
2017-03-20T07:44:39.879Z,951.95
2017-03-20T07:45:45.898Z,951.98
2017-03-20T07:46:46.167Z,951.99
2017-03-20T07:47:39.979Z,951.96
2017-03-20T07:48:53.332Z,951.97
2017-03-20T07:49:53.229Z,952.00
2017-03-20T07:50:42.633Z,951.98
2017-03-20T07:51:44.026Z,952.01
2017-03-20T07:52:40.108Z,952.01
2017-03-20T07:53:42.987Z,951.99
2017-03-20T07:54:39.382Z,952.05
2017-03-20T07:55:39.488Z,952.03
2017-03-20T07:56:44.141Z,952.00
2017-03-20T07:57:40.202Z,951.97
2017-03-20T07:58:37.128Z,951.96
2017-03-20T07:59:43.993Z,952.03
2017-03-20T08:00:43.464Z,951.98
2017-03-20T08:01:43.475Z,951.99
2017-03-20T08:02:39.440Z,951.98
2017-03-20T08:03:33.914Z,952.02
2017-03-20T08:04:53.990Z,951.99
2017-03-20T08:05:39.705Z,952.00
2017-03-20T08:06:43.582Z,951.94
2017-03-20T08:07:34.275Z,952.02
2017-03-20T08:08:38.656Z,951.95
2017-03-20T08:09:59.472Z,951.99
2017-03-20T08:10:53.742Z,952.01
2017-03-20T08:11:43.499Z,951.99
2017-03-20T08:12:37.626Z,951.96
2017-03-20T08:13:37.703Z,951.97
2017-03-20T08:15:06.327Z,951.97
2017-03-20T09:04:53.382Z,951.89
2017-03-20T09:05:03.627Z,951.87
2017-03-20T09:05:29.119Z,951.84
2017-03-20T09:05:39.492Z,951.85
2017-03-20T09:06:05.243Z,951.87
2017-03-20T09:06:48.810Z,951.89
2017-03-20T09:07:43.790Z,951.84
2017-03-20T09:08:44.950Z,951.91
2017-03-20T09:09:38.702Z,951.91
2017-03-20T09:10:37.110Z,951.83
2017-03-20T09:11:36.974Z,951.89
2017-03-20T09:12:39.716Z,951.90
2017-03-20T09:14:02.862Z,951.84
2017-03-20T09:14:41.993Z,951.84
2017-03-20T09:15:33.516Z,951.87
2017-03-20T09:16:32.938Z,951.80
2017-03-20T09:17:38.318Z,951.79
2017-03-20T09:18:59.309Z,951.86
2017-03-20T09:19:38.246Z,951.80
2017-03-20T09:20:44.611Z,951.81
2017-03-20T09:21:38.483Z,951.90
2017-03-20T09:22:51.887Z,951.85
2017-03-20T09:23:53.237Z,951.84
2017-03-20T09:24:47.600Z,951.81
2017-03-20T09:25:33.369Z,951.81
2017-03-20T09:26:40.840Z,951.82
2017-03-20T09:27:57.151Z,951.86
2017-03-20T09:28:55.780Z,951.85
2017-03-20T09:29:44.545Z,951.89
2017-03-20T09:30:59.643Z,951.93
2017-03-20T09:31:48.804Z,951.91
2017-03-20T09:32:39.127Z,951.90
2017-03-20T09:33:34.519Z,951.90
2017-03-20T09:34:53.650Z,951.88
2017-03-20T09:35:43.429Z,951.82
2017-03-20T09:36:49.729Z,951.85
2017-03-20T09:37:39.874Z,951.80
2017-03-20T09:38:43.256Z,951.78
2017-03-20T09:39:41.896Z,951.82
2017-03-20T09:40:58.979Z,951.77
2017-03-20T09:41:53.420Z,951.74
2017-03-20T09:42:58.199Z,951.83
2017-03-20T09:43:32.930Z,951.80
2017-03-20T09:44:44.606Z,951.80
2017-03-20T09:45:39.144Z,951.81
2017-03-20T09:46:43.190Z,951.80
2017-03-20T09:47:40.069Z,951.81
2017-03-20T09:48:52.888Z,951.77
2017-03-20T09:49:41.961Z,951.76
2017-03-20T09:50:50.048Z,951.73
2017-03-20T09:51:39.854Z,951.72
2017-03-20T09:52:38.681Z,951.72
2017-03-20T09:53:54.615Z,951.72
2017-03-20T09:54:53.782Z,951.66
2017-03-20T09:55:40.105Z,951.65
2017-03-20T09:56:45.198Z,951.70
2017-03-20T09:57:34.160Z,951.67
2017-03-20T09:58:34.607Z,951.62
2017-03-20T09:59:56.166Z,951.60
2017-03-20T10:00:39.572Z,951.59
2017-03-20T10:01:40.509Z,951.58
2017-03-20T10:02:37.675Z,951.60
2017-03-20T10:03:57.883Z,951.58
2017-03-20T10:04:57.240Z,951.54
2017-03-20T10:05:43.083Z,951.59
2017-03-20T10:06:45.243Z,951.56
2017-03-20T10:07:40.085Z,951.53
2017-03-20T10:08:34.547Z,951.51
2017-03-20T10:09:39.983Z,951.47
2017-03-20T10:10:32.573Z,951.46
2017-03-20T10:11:43.590Z,951.43
2017-03-20T10:12:44.387Z,951.43
2017-03-20T10:13:35.191Z,951.43
2017-03-20T10:14:33.444Z,951.41
2017-03-20T10:15:57.466Z,951.42
2017-03-20T10:16:40.751Z,951.41
2017-03-20T10:17:44.726Z,951.35
2017-03-20T10:18:45.184Z,951.39
2017-03-20T10:19:33.242Z,951.38
2017-03-20T10:20:45.352Z,951.36
2017-03-20T10:21:40.312Z,951.37
2017-03-20T10:22:54.116Z,951.34
2017-03-20T10:23:54.230Z,951.29
2017-03-20T10:24:53.095Z,951.30
2017-03-20T10:25:44.285Z,951.29
2017-03-20T10:26:38.448Z,951.25
2017-03-20T10:27:59.864Z,951.28
2017-03-20T10:28:37.174Z,951.25
2017-03-20T10:29:43.791Z,951.25
2017-03-20T10:30:53.128Z,951.23
2017-03-20T10:31:46.143Z,951.26
2017-03-20T10:32:38.544Z,951.19
2017-03-20T10:33:42.748Z,951.14
2017-03-20T10:34:42.886Z,951.15
2017-03-20T10:35:43.450Z,951.12
2017-03-20T10:36:54.936Z,951.08
2017-03-20T10:37:38.474Z,951.09
2017-03-20T10:38:53.785Z,951.09
2017-03-20T10:39:39.664Z,951.04
2017-03-20T10:40:40.058Z,951.06
2017-03-20T10:41:44.731Z,951.04
2017-03-20T10:42:41.131Z,950.98
2017-03-20T10:43:34.450Z,951.01
2017-03-20T10:44:32.935Z,950.97
2017-03-20T10:45:54.486Z,950.88
2017-03-20T10:46:33.234Z,950.92
2017-03-20T10:47:33.304Z,950.92
2017-03-20T10:48:53.756Z,950.89
2017-03-20T10:49:44.699Z,950.89
2017-03-20T10:50:45.197Z,950.94
2017-03-20T10:51:54.832Z,950.94
2017-03-20T10:52:54.331Z,950.94
2017-03-20T10:53:37.982Z,950.93
2017-03-20T10:54:39.805Z,950.94
2017-03-20T10:55:38.891Z,950.80
2017-03-20T10:56:38.235Z,950.95
2017-03-20T10:57:38.432Z,950.90
2017-03-20T10:58:38.630Z,950.93
2017-03-20T10:59:42.930Z,950.85
2017-03-20T11:00:41.279Z,950.85
2017-03-20T11:01:49.848Z,950.89
2017-03-20T11:03:00.112Z,950.88
2017-03-20T11:03:54.176Z,950.86
2017-03-20T11:04:43.573Z,950.85
2017-03-20T11:05:35.337Z,950.85
2017-03-20T11:06:44.554Z,950.91
2017-03-20T11:07:43.551Z,950.89
2017-03-20T11:08:43.475Z,950.92
2017-03-20T11:09:43.223Z,950.86
2017-03-20T11:10:54.099Z,950.80
2017-03-20T11:11:57.981Z,950.82
2017-03-20T11:12:43.486Z,950.82
2017-03-20T11:13:42.965Z,950.83
2017-03-20T11:14:53.269Z,950.77
2017-03-20T11:15:47.277Z,950.80
2017-03-20T11:16:48.635Z,950.74
2017-03-20T11:17:34.379Z,950.73
2017-03-20T11:18:51.495Z,950.74
2017-03-20T11:19:44.094Z,950.73
2017-03-20T11:20:54.173Z,950.81
2017-03-20T11:21:37.902Z,950.81
2017-03-20T11:22:43.509Z,950.78
2017-03-20T11:23:48.662Z,950.72
2017-03-20T11:24:59.130Z,950.73
2017-03-20T11:25:38.941Z,950.73
2017-03-20T11:26:42.562Z,950.67
2017-03-20T11:27:43.530Z,950.66
2017-03-20T11:28:33.425Z,950.65
2017-03-20T11:29:39.038Z,950.68
2017-03-20T11:30:53.131Z,950.65
2017-03-20T11:31:46.745Z,950.68
2017-03-20T11:32:52.868Z,950.60
2017-03-20T11:33:52.790Z,950.58
2017-03-20T11:34:54.268Z,950.59
2017-03-20T11:35:37.650Z,950.57
2017-03-20T11:37:05.015Z,950.58
2017-03-20T11:37:52.735Z,950.49
2017-03-20T11:38:34.864Z,950.51
2017-03-20T11:39:39.805Z,950.48
2017-03-20T11:40:39.027Z,950.46
2017-03-20T11:41:38.718Z,950.45
2017-03-20T11:42:42.453Z,950.40
2017-03-20T11:44:06.926Z,950.38
2017-03-20T11:44:40.007Z,950.31
2017-03-20T11:45:54.044Z,950.34
2017-03-20T11:46:37.601Z,950.33
2017-03-20T11:47:44.128Z,950.28
2017-03-20T11:48:38.715Z,950.28
2017-03-20T11:49:42.648Z,950.28
2017-03-20T11:50:45.593Z,950.22
2017-03-20T11:51:40.118Z,950.21
2017-03-20T11:52:42.362Z,950.20
2017-03-20T11:53:52.339Z,950.22
2017-03-20T11:54:53.569Z,950.21
2017-03-20T11:55:46.680Z,950.19
2017-03-20T11:56:37.596Z,950.20
2017-03-20T11:57:44.558Z,950.16
2017-03-20T11:58:40.554Z,950.15
2017-03-20T11:59:43.837Z,950.14
2017-03-20T12:00:39.725Z,950.07
2017-03-20T12:01:44.603Z,950.11
2017-03-20T12:02:44.062Z,950.08
2017-03-20T12:03:44.020Z,950.15
2017-03-20T12:04:47.297Z,950.10
2017-03-20T12:05:53.048Z,950.08
2017-03-20T12:06:58.320Z,950.05
2017-03-20T12:07:59.968Z,950.04
2017-03-20T12:08:49.402Z,950.03
2017-03-20T12:09:43.614Z,950.06
2017-03-20T12:10:43.231Z,950.04
2017-03-20T12:11:47.929Z,950.04
2017-03-20T12:12:59.681Z,950.03
2017-03-20T12:13:56.444Z,950.01
2017-03-20T12:14:40.101Z,949.97
2017-03-20T12:15:37.336Z,949.96
2017-03-20T12:16:53.591Z,949.96
2017-03-20T12:17:53.609Z,949.90
2017-03-20T12:18:59.953Z,949.88
2017-03-20T12:19:32.207Z,949.84
2017-03-20T12:21:14.489Z,949.89
2017-03-20T12:21:58.715Z,949.88
2017-03-20T12:22:51.931Z,949.92
2017-03-20T12:23:59.661Z,949.90
2017-03-20T12:25:02.617Z,949.86
2017-03-20T12:25:41.025Z,949.86
2017-03-20T12:26:53.788Z,949.80
2017-03-20T12:27:59.614Z,949.83
2017-03-20T12:28:39.034Z,949.82
2017-03-20T12:29:52.996Z,949.77
2017-03-20T12:31:00.043Z,949.84
2017-03-20T12:31:42.679Z,949.80
2017-03-20T12:32:50.597Z,949.79
2017-03-20T12:33:59.162Z,949.80
2017-03-20T12:34:57.575Z,949.81
2017-03-20T12:35:50.482Z,949.73
2017-03-20T12:36:38.004Z,949.67
2017-03-20T12:37:40.346Z,949.71
2017-03-20T12:38:58.264Z,949.72
2017-03-20T12:39:52.379Z,949.76
2017-03-20T12:40:34.363Z,949.68
2017-03-20T12:41:43.504Z,949.66
2017-03-20T12:42:52.801Z,949.64
2017-03-20T12:43:58.644Z,949.62
2017-03-20T12:44:48.426Z,949.60
2017-03-20T12:46:02.051Z,949.62
2017-03-20T12:46:34.687Z,949.57
2017-03-20T12:47:36.368Z,949.53
2017-03-20T12:48:48.622Z,949.56
2017-03-20T12:49:45.622Z,949.61
2017-03-20T12:50:53.246Z,949.54
2017-03-20T12:51:58.415Z,949.51
2017-03-20T12:52:54.241Z,949.55
2017-03-20T12:53:45.392Z,949.48
2017-03-20T12:54:43.116Z,949.47
2017-03-20T12:55:49.904Z,949.49
2017-03-20T12:57:02.997Z,949.51
2017-03-20T12:57:51.706Z,949.45
2017-03-20T12:58:37.014Z,949.37
2017-03-20T12:59:54.057Z,949.36
2017-03-20T13:00:48.391Z,949.36
2017-03-20T13:01:54.019Z,949.33
2017-03-20T13:02:45.031Z,949.32
2017-03-20T13:03:40.024Z,949.30
2017-03-20T13:04:43.522Z,949.28
2017-03-20T13:05:54.518Z,949.27
2017-03-20T13:06:44.119Z,949.26
2017-03-20T13:07:44.997Z,949.28
2017-03-20T13:08:46.150Z,949.26
2017-03-20T13:09:32.655Z,949.29
2017-03-20T13:10:43.725Z,949.26
2017-03-20T13:11:32.958Z,949.26
2017-03-20T13:12:38.430Z,949.26
2017-03-20T13:13:34.264Z,949.30
2017-03-20T13:14:48.720Z,949.31
2017-03-20T13:15:53.084Z,949.25